PWSweather.com
Personal Weather Stations
Station Observations
MIKESPOST
YorkGB

YorkGB

Lat: 53.9577018, Lon: -1.0822855

Elevation: 0

Station Type: WH1081

High Low Average
Temperature 63.7°F17.6°C 50.5°F10.3°C 56.7°F13.7°C
Dew Point 60.6°F15.9°C 45.6°F7.6°C 55.1°F12.8°C
Winds 11.0 mph 17.7 kmh 0.7 mph 1.1 kmh 6.0 mph SSE9.7 kmh SSE
Wind Gusts 19.0 mph30.6 kmh 3.9 mph6.3 kmh 11.0 mph17.7 kmh
Humidity 99% 83% 95%
Pressure 29.88 in1011.9 mb 29.78 in1008.5 mb -
Precipitation 0.12 in3.0 mm - -
Hour Temp Dew Point Humidity Winds Wind Gusts Pressure Precip Precip Rate Daily Precip Total
12:00 AM 50.5°F10.3°C 45.6°F7.6°C 83% 6.7 mph SE10.8 kmh SE 9.5 mph15.3 kmh 29.88 in1011.9 mb 0.00 in0.0 mm 0.00 in/hr0.0 mm/hr 0.00 in0.0 mm
12:20 AM 50.7°F10.4°C 45.8°F7.7°C 83% 6.6 mph SSE10.6 kmh SSE 9.5 mph15.3 kmh 29.87 in1011.5 mb 0.00 in0.0 mm 0.00 in/hr0.0 mm/hr 0.00 in0.0 mm
12:40 AM 51.1°F10.6°C 46.4°F8.0°C 84% 7.6 mph SE12.2 kmh SE 13.4 mph21.6 kmh 29.86 in1011.2 mb 0.00 in0.0 mm 0.00 in/hr0.0 mm/hr 0.00 in0.0 mm
01:00 AM 51.1°F10.6°C 46.4°F8.0°C 84% 6.3 mph SSE10.1 kmh SSE 7.8 mph12.6 kmh 29.86 in1011.2 mb 0.00 in0.0 mm 0.00 in/hr0.0 mm/hr 0.00 in0.0 mm
01:20 AM 50.9°F10.5°C 46.6°F8.1°C 85% 5.0 mph S8.0 kmh S 7.8 mph12.6 kmh 29.86 in1011.2 mb 0.00 in0.0 mm 0.00 in/hr0.0 mm/hr 0.00 in0.0 mm
01:40 AM 50.7°F10.4°C 46.7°F8.2°C 86% 1.0 mph S1.6 kmh S 3.9 mph6.3 kmh 29.86 in1011.2 mb 0.01 in0.3 mm 0.03 in/hr0.8 mm/hr 0.01 in0.3 mm
02:00 AM 50.5°F10.3°C 47.4°F8.6°C 89% 4.2 mph S6.8 kmh S 5.6 mph9.0 kmh 29.85 in1010.8 mb 0.07 in1.8 mm 0.09 in/hr2.3 mm/hr 0.07 in1.8 mm
02:20 AM 50.5°F10.3°C 48.0°F8.9°C 91% 6.9 mph SSE11.1 kmh SSE 9.5 mph15.3 kmh 29.84 in1010.5 mb 0.09 in2.3 mm 0.06 in/hr1.5 mm/hr 0.09 in2.3 mm
02:40 AM 50.7°F10.4°C 48.8°F9.3°C 93% 5.8 mph SSE9.3 kmh SSE 9.5 mph15.3 kmh 29.83 in1010.2 mb 0.08 in2.0 mm 0.00 in/hr0.0 mm/hr 0.09 in2.3 mm
03:00 AM 50.7°F10.4°C 48.8°F9.3°C 93% 4.6 mph S7.4 kmh S 9.5 mph15.3 kmh 29.82 in1009.8 mb 0.02 in0.5 mm 0.00 in/hr0.0 mm/hr 0.09 in2.3 mm
03:20 AM 51.1°F10.6°C 49.4°F9.7°C 94% 7.2 mph SE11.6 kmh SE 9.5 mph15.3 kmh 29.82 in1009.8 mb 0.00 in0.0 mm 0.00 in/hr0.0 mm/hr 0.09 in2.3 mm
03:40 AM 51.3°F10.7°C 49.9°F9.9°C 95% 5.3 mph SSE8.5 kmh SSE 9.5 mph15.3 kmh 29.81 in1009.5 mb 0.00 in0.0 mm 0.00 in/hr0.0 mm/hr 0.09 in2.3 mm
04:00 AM 51.6°F10.9°C 50.2°F10.1°C 95% 2.7 mph SSE4.3 kmh SSE 9.5 mph15.3 kmh 29.81 in1009.5 mb 0.00 in0.0 mm 0.00 in/hr0.0 mm/hr 0.09 in2.3 mm
04:20 AM 51.8°F11.0°C 50.4°F10.2°C 95% 2.2 mph SE3.5 kmh SE 5.6 mph9.0 kmh 29.81 in1009.5 mb 0.00 in0.0 mm 0.00 in/hr0.0 mm/hr 0.09 in2.3 mm
04:40 AM 51.8°F11.0°C 50.7°F10.4°C 96% 2.5 mph SSE4.0 kmh SSE 7.8 mph12.6 kmh 29.80 in1009.1 mb 0.00 in0.0 mm 0.00 in/hr0.0 mm/hr 0.09 in2.3 mm
05:00 AM 52.0°F11.1°C 50.9°F10.5°C 96% 4.3 mph S6.9 kmh S 11.2 mph18.0 kmh 29.80 in1009.1 mb 0.01 in0.3 mm 0.02 in/hr0.5 mm/hr 0.11 in2.8 mm
05:20 AM 52.2°F11.2°C 51.1°F10.6°C 96% 2.7 mph SSE4.3 kmh SSE 3.9 mph6.3 kmh 29.80 in1009.1 mb 0.01 in0.3 mm 0.00 in/hr0.0 mm/hr 0.11 in2.8 mm
05:40 AM 52.5°F11.4°C 51.7°F10.9°C 97% 3.1 mph S5.0 kmh S 7.8 mph12.6 kmh 29.79 in1008.8 mb 0.01 in0.3 mm 0.00 in/hr0.0 mm/hr 0.11 in2.8 mm
06:00 AM 53.1°F11.7°C 52.5°F11.4°C 98% 6.2 mph SSW10.0 kmh SSW 11.2 mph18.0 kmh 29.79 in1008.8 mb 0.00 in0.0 mm 0.00 in/hr0.0 mm/hr 0.11 in2.8 mm
06:20 AM 53.2°F11.8°C 52.7°F11.5°C 98% 5.0 mph S8.0 kmh S 9.5 mph15.3 kmh 29.79 in1008.8 mb 0.00 in0.0 mm 0.00 in/hr0.0 mm/hr 0.11 in2.8 mm
06:40 AM 53.4°F11.9°C 52.9°F11.6°C 98% 5.6 mph S9.0 kmh S 9.5 mph15.3 kmh 29.79 in1008.8 mb 0.00 in0.0 mm 0.00 in/hr0.0 mm/hr 0.11 in2.8 mm
07:00 AM 53.6°F12.0°C 53.3°F11.8°C 99% 6.8 mph WSW10.9 kmh WSW 13.4 mph21.6 kmh 29.78 in1008.5 mb 0.00 in0.0 mm 0.00 in/hr0.0 mm/hr 0.11 in2.8 mm
07:20 AM 53.8°F12.1°C 53.5°F11.9°C 99% 6.3 mph NE10.1 kmh NE 11.2 mph18.0 kmh 29.78 in1008.5 mb 0.00 in0.0 mm 0.00 in/hr0.0 mm/hr 0.11 in2.8 mm
07:40 AM 54.1°F12.3°C 53.9°F12.2°C 99% 7.9 mph SE12.7 kmh SE 15.1 mph24.3 kmh 29.78 in1008.5 mb 0.01 in0.3 mm 0.03 in/hr0.8 mm/hr 0.12 in3.0 mm
08:00 AM 54.5°F12.5°C 54.2°F12.3°C 99% 8.9 mph SW14.3 kmh SW 13.4 mph21.6 kmh 29.78 in1008.5 mb 0.01 in0.3 mm 0.00 in/hr0.0 mm/hr 0.12 in3.0 mm
08:20 AM 54.5°F12.5°C 54.2°F12.3°C 99% 8.9 mph S14.3 kmh S 13.4 mph21.6 kmh 29.79 in1008.8 mb 0.01 in0.3 mm 0.00 in/hr0.0 mm/hr 0.12 in3.0 mm
08:40 AM 54.7°F12.6°C 54.4°F12.4°C 99% 11.0 mph S17.7 kmh S 15.1 mph24.3 kmh 29.79 in1008.8 mb 0.00 in0.0 mm 0.00 in/hr0.0 mm/hr 0.12 in3.0 mm
09:00 AM 55.0°F12.8°C 54.8°F12.7°C 99% 9.1 mph S14.6 kmh S 15.1 mph24.3 kmh 29.79 in1008.8 mb 0.00 in0.0 mm 0.00 in/hr0.0 mm/hr 0.12 in3.0 mm
09:20 AM 55.4°F13.0°C 55.1°F12.8°C 99% 6.9 mph S11.1 kmh S 15.1 mph24.3 kmh 29.79 in1008.8 mb 0.00 in0.0 mm 0.00 in/hr0.0 mm/hr 0.12 in3.0 mm
09:40 AM 55.9°F13.3°C 55.7°F13.2°C 99% 6.5 mph SE10.5 kmh SE 13.4 mph21.6 kmh 29.79 in1008.8 mb 0.00 in0.0 mm 0.00 in/hr0.0 mm/hr 0.12 in3.0 mm
10:00 AM 56.3°F13.5°C 56.0°F13.3°C 99% 8.0 mph SSE12.9 kmh SSE 13.4 mph21.6 kmh 29.79 in1008.8 mb 0.00 in0.0 mm 0.00 in/hr0.0 mm/hr 0.12 in3.0 mm
10:20 AM 56.7°F13.7°C 56.4°F13.6°C 99% 8.2 mph E13.2 kmh E 11.2 mph18.0 kmh 29.80 in1009.1 mb 0.00 in0.0 mm 0.00 in/hr0.0 mm/hr 0.12 in3.0 mm
10:40 AM 57.0°F13.9°C 56.8°F13.8°C 99% 8.1 mph SE13.0 kmh SE 9.5 mph15.3 kmh 29.80 in1009.1 mb 0.00 in0.0 mm 0.00 in/hr0.0 mm/hr 0.12 in3.0 mm
11:00 AM 57.6°F14.2°C 57.3°F14.1°C 99% 8.4 mph S13.5 kmh S 11.2 mph18.0 kmh 29.80 in1009.1 mb 0.00 in0.0 mm 0.00 in/hr0.0 mm/hr 0.12 in3.0 mm
11:20 AM 58.6°F14.8°C 58.4°F14.7°C 99% 7.3 mph SSE11.7 kmh SSE 13.4 mph21.6 kmh 29.80 in1009.1 mb 0.00 in0.0 mm 0.00 in/hr0.0 mm/hr 0.12 in3.0 mm
11:40 AM 59.2°F15.1°C 58.9°F14.9°C 99% 7.6 mph S12.2 kmh S 13.4 mph21.6 kmh 29.80 in1009.1 mb 0.00 in0.0 mm 0.00 in/hr0.0 mm/hr 0.12 in3.0 mm
12:00 PM 59.5°F15.3°C 59.3°F15.2°C 99% 7.7 mph SSE12.4 kmh SSE 13.4 mph21.6 kmh 29.80 in1009.1 mb 0.00 in0.0 mm 0.00 in/hr0.0 mm/hr 0.12 in3.0 mm
12:20 PM 60.3°F15.7°C 59.7°F15.4°C 98% 7.4 mph SE11.9 kmh SE 15.1 mph24.3 kmh 29.79 in1008.8 mb 0.00 in0.0 mm 0.00 in/hr0.0 mm/hr 0.12 in3.0 mm
12:40 PM 61.0°F16.1°C 59.8°F15.4°C 96% 4.8 mph S7.7 kmh S 11.2 mph18.0 kmh 29.79 in1008.8 mb 0.00 in0.0 mm 0.00 in/hr0.0 mm/hr 0.12 in3.0 mm
01:00 PM 61.2°F16.2°C 59.7°F15.4°C 95% 2.7 mph S4.3 kmh S 7.8 mph12.6 kmh 29.79 in1008.8 mb 0.00 in0.0 mm 0.00 in/hr0.0 mm/hr 0.12 in3.0 mm
01:20 PM 62.1°F16.7°C 60.6°F15.9°C 95% 7.3 mph S11.7 kmh S 11.2 mph18.0 kmh 29.78 in1008.5 mb 0.00 in0.0 mm 0.00 in/hr0.0 mm/hr 0.12 in3.0 mm
01:40 PM 63.3°F17.4°C 60.4°F15.8°C 90% 10.9 mph SSE17.5 kmh SSE 17.3 mph27.8 kmh 29.78 in1008.5 mb 0.00 in0.0 mm 0.00 in/hr0.0 mm/hr 0.12 in3.0 mm
02:00 PM 63.7°F17.6°C 60.4°F15.8°C 89% 7.8 mph S12.6 kmh S 11.2 mph18.0 kmh 29.78 in1008.5 mb 0.00 in0.0 mm 0.00 in/hr0.0 mm/hr 0.12 in3.0 mm
02:20 PM 63.0°F17.2°C 60.0°F15.6°C 90% 7.6 mph ESE12.2 kmh ESE 11.2 mph18.0 kmh 29.79 in1008.8 mb 0.00 in0.0 mm 0.00 in/hr0.0 mm/hr 0.12 in3.0 mm
02:40 PM 62.6°F17.0°C 59.6°F15.3°C 90% 7.5 mph SSE12.1 kmh SSE 15.1 mph24.3 kmh 29.78 in1008.5 mb 0.00 in0.0 mm 0.00 in/hr0.0 mm/hr 0.12 in3.0 mm
03:00 PM 62.2°F16.8°C 59.3°F15.2°C 90% 6.5 mph SSE10.5 kmh SSE 11.2 mph18.0 kmh 29.79 in1008.8 mb 0.00 in0.0 mm 0.00 in/hr0.0 mm/hr 0.12 in3.0 mm
03:20 PM 61.9°F16.6°C 59.2°F15.1°C 91% 6.5 mph S10.5 kmh S 13.4 mph21.6 kmh 29.78 in1008.5 mb 0.00 in0.0 mm 0.00 in/hr0.0 mm/hr 0.12 in3.0 mm
03:40 PM 61.5°F16.4°C 58.9°F14.9°C 91% 3.9 mph SE6.3 kmh SE 9.5 mph15.3 kmh 29.78 in1008.5 mb 0.00 in0.0 mm 0.00 in/hr0.0 mm/hr 0.12 in3.0 mm
04:00 PM 61.5°F16.4°C 58.9°F14.9°C 91% 7.1 mph S11.4 kmh S 11.2 mph18.0 kmh 29.78 in1008.5 mb 0.00 in0.0 mm 0.00 in/hr0.0 mm/hr 0.12 in3.0 mm
04:20 PM 61.3°F16.3°C 58.7°F14.8°C 91% 5.8 mph SSE9.3 kmh SSE 9.5 mph15.3 kmh 29.79 in1008.8 mb 0.00 in0.0 mm 0.00 in/hr0.0 mm/hr 0.12 in3.0 mm
04:40 PM 61.2°F16.2°C 58.5°F14.7°C 91% 7.7 mph SSW12.4 kmh SSW 11.2 mph18.0 kmh 29.79 in1008.8 mb 0.00 in0.0 mm 0.00 in/hr0.0 mm/hr 0.12 in3.0 mm
05:00 PM 60.8°F16.0°C 58.5°F14.7°C 92% 2.8 mph S4.5 kmh S 5.6 mph9.0 kmh 29.80 in1009.1 mb 0.00 in0.0 mm 0.00 in/hr0.0 mm/hr 0.12 in3.0 mm
05:20 PM 60.6°F15.9°C 58.3°F14.6°C 92% 2.6 mph S4.2 kmh S 3.9 mph6.3 kmh 29.80 in1009.1 mb 0.00 in0.0 mm 0.00 in/hr0.0 mm/hr 0.12 in3.0 mm
05:40 PM 60.3°F15.7°C 57.9°F14.4°C 92% 2.3 mph SSE3.7 kmh SSE 3.9 mph6.3 kmh 29.79 in1008.8 mb 0.00 in0.0 mm 0.00 in/hr0.0 mm/hr 0.12 in3.0 mm
06:00 PM 59.4°F15.2°C 57.3°F14.1°C 93% 1.5 mph SSE2.4 kmh SSE 5.6 mph9.0 kmh 29.79 in1008.8 mb 0.00 in0.0 mm 0.00 in/hr0.0 mm/hr 0.12 in3.0 mm
06:20 PM 58.3°F14.6°C 56.6°F13.7°C 94% 0.7 mph S1.1 kmh S 3.9 mph6.3 kmh 29.79 in1008.8 mb 0.00 in0.0 mm 0.00 in/hr0.0 mm/hr 0.12 in3.0 mm
06:40 PM 57.9°F14.4°C 56.5°F13.6°C 95% 3.3 mph S5.3 kmh S 7.8 mph12.6 kmh 29.79 in1008.8 mb 0.00 in0.0 mm 0.00 in/hr0.0 mm/hr 0.12 in3.0 mm
07:00 PM 58.5°F14.7°C 57.3°F14.1°C 96% 4.6 mph SE7.4 kmh SE 9.5 mph15.3 kmh 29.79 in1008.8 mb 0.00 in0.0 mm 0.00 in/hr0.0 mm/hr 0.12 in3.0 mm
07:20 PM 58.6°F14.8°C 57.8°F14.3°C 97% 3.3 mph S5.3 kmh S 7.8 mph12.6 kmh 29.79 in1008.8 mb 0.00 in0.0 mm 0.00 in/hr0.0 mm/hr 0.12 in3.0 mm
07:40 PM 59.2°F15.1°C 58.3°F14.6°C 97% 6.3 mph SSE10.1 kmh SSE 9.5 mph15.3 kmh 29.80 in1009.1 mb 0.00 in0.0 mm 0.00 in/hr0.0 mm/hr 0.12 in3.0 mm
08:00 PM 59.4°F15.2°C 58.2°F14.6°C 96% 7.3 mph SSE11.7 kmh SSE 11.2 mph18.0 kmh 29.79 in1008.8 mb 0.00 in0.0 mm 0.00 in/hr0.0 mm/hr 0.12 in3.0 mm
08:20 PM 59.7°F15.4°C 58.6°F14.8°C 96% 7.6 mph S12.2 kmh S 9.5 mph15.3 kmh 29.80 in1009.1 mb 0.00 in0.0 mm 0.00 in/hr0.0 mm/hr 0.12 in3.0 mm
08:40 PM 59.7°F15.4°C 58.3°F14.6°C 95% 7.3 mph SE11.7 kmh SE 13.4 mph21.6 kmh 29.79 in1008.8 mb 0.00 in0.0 mm 0.00 in/hr0.0 mm/hr 0.12 in3.0 mm
09:00 PM 59.5°F15.3°C 58.1°F14.5°C 95% 10.1 mph SE16.3 kmh SE 19.0 mph30.6 kmh 29.80 in1009.1 mb 0.00 in0.0 mm 0.00 in/hr0.0 mm/hr 0.12 in3.0 mm
09:20 PM 59.2°F15.1°C 57.8°F14.3°C 95% 10.8 mph SSE17.4 kmh SSE 17.3 mph27.8 kmh 29.79 in1008.8 mb 0.00 in0.0 mm 0.00 in/hr0.0 mm/hr 0.12 in3.0 mm
09:40 PM 59.2°F15.1°C 58.1°F14.5°C 96% 8.7 mph S14.0 kmh S 13.4 mph21.6 kmh 29.79 in1008.8 mb 0.00 in0.0 mm 0.00 in/hr0.0 mm/hr 0.12 in3.0 mm
10:00 PM 58.5°F14.7°C 57.3°F14.1°C 96% 7.6 mph SE12.2 kmh SE 11.2 mph18.0 kmh 29.78 in1008.5 mb 0.00 in0.0 mm 0.00 in/hr0.0 mm/hr 0.12 in3.0 mm
10:20 PM 58.1°F14.5°C 57.0°F13.9°C 96% 7.5 mph S12.1 kmh S 13.4 mph21.6 kmh 29.78 in1008.5 mb 0.00 in0.0 mm 0.00 in/hr0.0 mm/hr 0.12 in3.0 mm
10:40 PM 57.7°F14.3°C 56.9°F13.8°C 97% 4.9 mph S7.9 kmh S 7.8 mph12.6 kmh 29.78 in1008.5 mb 0.00 in0.0 mm 0.00 in/hr0.0 mm/hr 0.12 in3.0 mm
11:00 PM 57.7°F14.3°C 57.2°F14.0°C 98% 6.3 mph S10.1 kmh S 9.5 mph15.3 kmh 29.78 in1008.5 mb 0.00 in0.0 mm 0.00 in/hr0.0 mm/hr 0.12 in3.0 mm
11:20 PM 57.4°F14.1°C 56.8°F13.8°C 98% 6.4 mph SW10.3 kmh SW 9.5 mph15.3 kmh 29.78 in1008.5 mb 0.00 in0.0 mm 0.00 in/hr0.0 mm/hr 0.12 in3.0 mm
11:40 PM 57.0°F13.9°C 56.5°F13.6°C 98% 5.4 mph S8.7 kmh S 7.8 mph12.6 kmh 29.78 in1008.5 mb 0.00 in0.0 mm 0.00 in/hr0.0 mm/hr 0.12 in3.0 mm